createdAt,value
2023-05-20T00:03:02.184Z,4.82
2023-05-20T00:05:28.802Z,4.47
2023-05-20T00:10:21.914Z,4.63
2023-05-20T00:15:15.036Z,5.45
2023-05-20T00:17:41.733Z,5.35
2023-05-20T00:20:08.654Z,4.82
2023-05-20T00:22:35.382Z,5.35
2023-05-20T00:25:01.979Z,4.97
2023-05-20T00:29:55.117Z,4.90
2023-05-20T00:32:21.753Z,5.03
2023-05-20T00:35:01.275Z,6.30
2023-05-20T00:37:28.069Z,4.95
2023-05-20T00:39:55.018Z,6.28
2023-05-20T00:42:22.850Z,6.00
2023-05-20T00:44:50.483Z,5.45
2023-05-20T00:47:19.476Z,5.68
2023-05-20T00:49:49.620Z,5.10
2023-05-20T00:52:19.428Z,4.90
2023-05-20T00:54:46.373Z,4.70
2023-05-20T00:57:13.737Z,6.38
2023-05-20T00:59:41.841Z,6.07
2023-05-20T01:02:10.091Z,5.97
2023-05-20T01:04:37.028Z,5.47
2023-05-20T01:07:05.807Z,5.55
2023-05-20T01:09:33.319Z,5.95
2023-05-20T01:12:10.706Z,5.28
2023-05-20T01:14:46.936Z,6.30
2023-05-20T01:17:17.897Z,6.30
2023-05-20T01:19:49.116Z,5.55
2023-05-20T01:22:16.232Z,6.07
2023-05-20T01:24:44.790Z,6.25
2023-05-20T01:27:13.647Z,6.10
2023-05-20T01:29:43.002Z,6.10
2023-05-20T01:32:22.965Z,6.82
2023-05-20T01:34:52.064Z,6.68
2023-05-20T01:37:19.632Z,6.63
2023-05-20T01:39:47.445Z,5.72
2023-05-20T01:42:16.119Z,7.25
2023-05-20T01:44:43.840Z,6.38
2023-05-20T01:47:10.713Z,7.10
2023-05-20T01:49:37.395Z,6.13
2023-05-20T01:52:04.750Z,6.75
2023-05-20T01:54:31.414Z,6.95
2023-05-20T01:56:58.497Z,6.68
2023-05-20T01:59:25.086Z,6.63
2023-05-20T02:04:19.243Z,6.53
2023-05-20T02:06:46.277Z,6.97
2023-05-20T02:09:13.026Z,7.75
2023-05-20T02:11:39.822Z,6.03
2023-05-20T02:14:06.464Z,7.90
2023-05-20T02:16:33.232Z,7.05
2023-05-20T02:19:00.027Z,7.10
2023-05-20T02:21:26.699Z,6.85
2023-05-20T02:23:53.706Z,7.47
2023-05-20T02:26:20.805Z,7.13
2023-05-20T02:28:50.612Z,6.68
2023-05-20T02:31:17.775Z,6.78
2023-05-20T02:33:45.262Z,7.07
2023-05-20T02:36:59.334Z,7.35
2023-05-20T02:39:26.039Z,7.38
2023-05-20T02:41:52.578Z,7.25
2023-05-20T02:46:45.871Z,7.80
2023-05-20T02:49:12.488Z,7.78
2023-05-20T02:54:07.002Z,6.90
2023-05-20T02:59:01.795Z,7.82
2023-05-20T03:01:29.610Z,8.35
2023-05-20T03:03:56.254Z,7.47
2023-05-20T03:06:23.006Z,7.60
2023-05-20T03:08:49.757Z,7.55
2023-05-20T03:11:16.565Z,7.97
2023-05-20T03:13:43.185Z,8.48
2023-05-20T03:21:04.902Z,8.05
2023-05-20T03:23:31.477Z,7.95
2023-05-20T03:28:24.613Z,7.18
2023-05-20T03:33:17.779Z,7.22
2023-05-20T03:38:10.923Z,7.38
2023-05-20T03:40:38.822Z,7.82
2023-05-20T03:43:05.730Z,8.02
2023-05-20T03:45:34.573Z,7.80
2023-05-20T03:48:07.102Z,8.18
2023-05-20T03:50:35.454Z,8.00
2023-05-20T03:53:02.257Z,8.18
2023-05-20T03:55:35.485Z,8.20
2023-05-20T03:58:02.782Z,8.68
2023-05-20T04:00:31.511Z,8.15
2023-05-20T04:02:58.727Z,9.07
2023-05-20T04:05:25.371Z,7.85
2023-05-20T04:07:52.056Z,24.85
2023-05-20T04:10:20.996Z,9.23
2023-05-20T04:12:47.738Z,8.90
2023-05-20T04:18:08.192Z,8.15
2023-05-20T04:20:35.954Z,7.53
2023-05-20T04:23:02.618Z,6.88
2023-05-20T04:27:57.631Z,6.90
2023-05-20T04:30:24.493Z,6.70
2023-05-20T04:32:51.297Z,6.13
2023-05-20T04:35:18.309Z,6.28
2023-05-20T04:37:49.601Z,5.85
2023-05-20T04:40:17.142Z,5.30
2023-05-20T04:42:45.003Z,5.25
2023-05-20T04:45:13.714Z,5.28
2023-05-20T04:47:41.863Z,4.80
2023-05-20T04:50:10.839Z,4.88
2023-05-20T04:52:45.887Z,5.00
2023-05-20T04:55:13.270Z,5.10
2023-05-20T04:57:41.812Z,5.72
2023-05-20T05:00:10.770Z,5.53
2023-05-20T05:02:38.352Z,5.53
2023-05-20T05:05:05.775Z,5.18
2023-05-20T05:07:32.524Z,5.25
2023-05-20T05:09:59.141Z,5.10
2023-05-20T05:12:27.697Z,4.38
2023-05-20T05:14:54.217Z,5.13
2023-05-20T05:17:20.923Z,4.63
2023-05-20T05:19:47.545Z,4.93
2023-05-20T05:22:14.125Z,5.53
2023-05-20T05:24:40.671Z,4.38
2023-05-20T05:27:07.235Z,4.82
2023-05-20T05:29:34.193Z,5.50
2023-05-20T05:32:01.833Z,5.00
2023-05-20T05:34:28.440Z,4.68
2023-05-20T05:36:55.066Z,5.32
2023-05-20T05:39:21.764Z,5.07
2023-05-20T05:41:48.365Z,4.57
2023-05-20T05:44:15.604Z,5.03
2023-05-20T05:46:42.470Z,5.63
2023-05-20T05:49:09.149Z,5.65
2023-05-20T05:51:38.256Z,5.20
2023-05-20T05:54:05.739Z,5.88
2023-05-20T05:56:32.394Z,6.55
2023-05-20T05:58:58.965Z,5.55
2023-05-20T06:01:25.661Z,6.20
2023-05-20T06:03:52.471Z,5.53
2023-05-20T06:06:19.912Z,5.93
2023-05-20T06:08:48.095Z,5.68
2023-05-20T06:11:15.405Z,6.35
2023-05-20T06:13:42.319Z,5.75
2023-05-20T06:16:09.039Z,5.82
2023-05-20T06:18:35.678Z,5.90
2023-05-20T06:21:04.779Z,6.03
2023-05-20T06:23:31.701Z,5.75
2023-05-20T06:26:01.151Z,5.50
2023-05-20T06:28:29.567Z,6.22
2023-05-20T06:30:57.522Z,6.05
2023-05-20T06:33:27.401Z,6.68
2023-05-20T06:35:58.359Z,6.25
2023-05-20T06:38:25.360Z,6.40
2023-05-20T06:40:51.968Z,5.57
2023-05-20T06:43:18.858Z,5.80
2023-05-20T06:45:52.288Z,5.70
2023-05-20T06:48:33.276Z,6.15
2023-05-20T06:51:00.421Z,6.07
2023-05-20T06:53:27.643Z,5.28
2023-05-20T06:55:55.965Z,6.05
2023-05-20T06:58:23.209Z,6.00
2023-05-20T07:00:49.833Z,6.47
2023-05-20T07:03:16.965Z,6.75
2023-05-20T07:05:44.701Z,5.85
2023-05-20T07:08:11.915Z,5.78
2023-05-20T07:10:38.686Z,6.55
2023-05-20T07:13:05.517Z,5.93
2023-05-20T07:15:32.271Z,6.13
2023-05-20T07:17:59.341Z,6.38
2023-05-20T07:20:26.327Z,6.03
2023-05-20T07:22:53.290Z,6.18
2023-05-20T07:25:40.822Z,5.78
2023-05-20T07:28:07.759Z,5.85
2023-05-20T07:30:34.346Z,6.38
2023-05-20T07:33:21.217Z,6.72
2023-05-20T07:35:48.925Z,5.65
2023-05-20T07:38:15.665Z,6.60
2023-05-20T07:40:43.524Z,6.60
2023-05-20T07:43:10.220Z,5.53
2023-05-20T07:45:38.016Z,6.28
2023-05-20T07:48:06.381Z,6.53
2023-05-20T07:50:34.198Z,6.43
2023-05-20T07:53:01.160Z,5.97
2023-05-20T07:55:30.159Z,6.25
2023-05-20T07:57:57.181Z,5.82
2023-05-20T08:00:24.831Z,6.00
2023-05-20T08:02:52.012Z,5.68
2023-05-20T08:05:25.534Z,6.03
2023-05-20T08:07:52.267Z,5.78
2023-05-20T08:10:21.110Z,5.25
2023-05-20T08:12:48.017Z,6.50
2023-05-20T08:15:14.749Z,5.75
2023-05-20T08:17:41.544Z,5.07
2023-05-20T08:20:09.904Z,5.82
2023-05-20T08:22:37.570Z,4.95
2023-05-20T08:25:08.063Z,5.47
2023-05-20T08:27:36.162Z,5.45
2023-05-20T08:30:05.054Z,5.55
2023-05-20T08:32:31.711Z,5.47
2023-05-20T08:35:02.858Z,5.07
2023-05-20T08:37:30.009Z,5.10
2023-05-20T08:39:56.638Z,5.95
2023-05-20T08:42:24.736Z,5.35
2023-05-20T08:44:54.316Z,5.10
2023-05-20T08:47:22.043Z,5.78
2023-05-20T08:49:49.475Z,5.82
2023-05-20T08:52:18.112Z,5.55
2023-05-20T08:54:48.020Z,4.72
2023-05-20T08:57:14.674Z,5.40
2023-05-20T08:59:46.824Z,5.80
2023-05-20T09:02:14.290Z,5.45
2023-05-20T09:04:41.131Z,6.00
2023-05-20T09:07:07.742Z,4.75
2023-05-20T09:09:35.247Z,5.25
2023-05-20T09:12:03.243Z,5.22
2023-05-20T09:14:31.022Z,4.30
2023-05-20T09:16:57.742Z,5.15
2023-05-20T09:19:24.785Z,5.35
2023-05-20T09:21:54.097Z,4.68
2023-05-20T09:24:24.253Z,4.70
2023-05-20T09:26:51.328Z,4.35
2023-05-20T09:29:19.656Z,5.15
2023-05-20T09:31:46.648Z,4.95
2023-05-20T09:34:13.793Z,5.25
2023-05-20T09:36:41.699Z,5.28
2023-05-20T09:39:12.760Z,4.57
2023-05-20T09:41:47.409Z,5.25
2023-05-20T09:44:16.331Z,5.43
2023-05-20T09:46:45.901Z,5.40
2023-05-20T09:49:13.135Z,5.47
2023-05-20T09:51:41.908Z,5.63
2023-05-20T09:54:09.424Z,4.88
2023-05-20T09:56:36.859Z,4.93
2023-05-20T09:59:05.321Z,4.68
2023-05-20T10:01:31.954Z,5.07
2023-05-20T10:03:59.914Z,5.45
2023-05-20T10:06:43.574Z,5.35
2023-05-20T10:09:23.364Z,5.03
2023-05-20T10:12:12.865Z,4.80
2023-05-20T10:15:11.580Z,5.18
2023-05-20T10:17:47.548Z,5.47
2023-05-20T10:20:14.318Z,4.97
2023-05-20T10:22:41.093Z,5.55
2023-05-20T10:25:13.129Z,4.90
2023-05-20T10:27:46.938Z,5.47
2023-05-20T10:30:21.286Z,4.95
2023-05-20T10:32:57.468Z,4.45
2023-05-20T10:35:27.628Z,5.43
2023-05-20T10:38:06.257Z,5.65
2023-05-20T10:40:33.106Z,5.93
2023-05-20T10:43:09.784Z,5.10
2023-05-20T10:45:54.898Z,5.28
2023-05-20T10:48:33.016Z,5.40
2023-05-20T10:51:04.284Z,5.05
2023-05-20T10:53:39.713Z,4.95
2023-05-20T10:56:06.867Z,5.43
2023-05-20T10:58:38.673Z,4.60
2023-05-20T11:01:06.301Z,5.43
2023-05-20T11:03:50.309Z,5.05
2023-05-20T11:06:19.065Z,4.97
2023-05-20T11:08:46.636Z,4.53
2023-05-20T11:11:14.995Z,5.07
2023-05-20T11:13:42.392Z,5.00
2023-05-20T11:16:09.466Z,4.97
2023-05-20T11:18:36.524Z,4.57
2023-05-20T11:21:04.031Z,4.70
2023-05-20T11:23:30.964Z,4.60
2023-05-20T11:25:57.947Z,4.60
2023-05-20T11:28:25.170Z,4.63
2023-05-20T11:30:52.803Z,4.60
2023-05-20T11:33:19.806Z,4.38
2023-05-20T11:35:47.291Z,4.60
2023-05-20T11:38:14.254Z,5.00
2023-05-20T11:40:56.752Z,4.50
2023-05-20T11:43:24.249Z,3.78
2023-05-20T11:45:56.095Z,4.07
2023-05-20T11:48:23.884Z,4.13
2023-05-20T11:50:50.600Z,4.65
2023-05-20T11:53:21.679Z,3.90
2023-05-20T11:55:56.657Z,4.25
2023-05-20T11:58:24.029Z,4.53
2023-05-20T12:00:56.795Z,4.15
2023-05-20T12:03:26.257Z,4.28
2023-05-20T12:05:53.921Z,3.70
2023-05-20T12:08:20.472Z,4.35
2023-05-20T12:10:47.294Z,4.25
2023-05-20T12:13:13.836Z,4.03
2023-05-20T12:15:41.128Z,3.50
2023-05-20T12:18:08.047Z,4.07
2023-05-20T12:20:35.116Z,4.65
2023-05-20T12:23:02.207Z,3.90
2023-05-20T12:25:29.076Z,4.47
2023-05-20T12:27:56.237Z,4.32
2023-05-20T12:30:24.170Z,4.05
2023-05-20T12:32:52.090Z,3.90
2023-05-20T12:35:26.517Z,3.58
2023-05-20T12:37:53.394Z,4.28
2023-05-20T12:40:20.062Z,4.22
2023-05-20T12:42:46.570Z,4.75
2023-05-20T12:45:13.449Z,3.85
2023-05-20T12:47:40.092Z,4.78
2023-05-20T12:50:07.093Z,4.63
2023-05-20T12:52:33.684Z,4.55
2023-05-20T12:55:00.285Z,5.55
2023-05-20T12:57:27.129Z,4.35
2023-05-20T12:59:53.824Z,4.03
2023-05-20T13:02:21.053Z,3.95
2023-05-20T13:04:47.822Z,4.63
2023-05-20T13:07:14.507Z,5.45
2023-05-20T13:09:41.123Z,5.30
2023-05-20T13:12:08.073Z,4.70
2023-05-20T13:14:34.685Z,5.18
2023-05-20T13:17:01.307Z,5.53
2023-05-20T13:19:28.168Z,5.97
2023-05-20T13:21:54.802Z,5.88
2023-05-20T13:24:21.859Z,6.50
2023-05-20T13:26:48.529Z,6.18
2023-05-20T13:29:15.179Z,5.32
2023-05-20T13:31:42.200Z,5.72
2023-05-20T13:34:08.910Z,5.50
2023-05-20T13:36:35.567Z,5.40
2023-05-20T13:39:02.823Z,5.70
2023-05-20T13:41:30.672Z,5.95
2023-05-20T13:43:57.300Z,5.32
2023-05-20T13:46:24.272Z,6.15
2023-05-20T13:48:50.882Z,5.57
2023-05-20T13:51:17.658Z,5.30
2023-05-20T13:53:44.232Z,5.22
2023-05-20T13:56:11.132Z,5.72
2023-05-20T13:58:38.368Z,4.70
2023-05-20T14:01:06.191Z,5.35
2023-05-20T14:03:37.451Z,5.40
2023-05-20T14:06:04.462Z,5.05
2023-05-20T14:08:31.349Z,4.75
2023-05-20T14:10:57.952Z,5.70
2023-05-20T14:13:25.521Z,4.38
2023-05-20T14:15:54.539Z,4.90
2023-05-20T14:18:21.511Z,5.03
2023-05-20T14:20:48.164Z,5.25
2023-05-20T14:23:14.761Z,5.18
2023-05-20T14:25:41.463Z,5.65
2023-05-20T14:28:08.052Z,5.78
2023-05-20T14:30:35.045Z,5.15
2023-05-20T14:33:01.870Z,5.65
2023-05-20T14:35:28.451Z,5.32
2023-05-20T14:37:55.090Z,6.03
2023-05-20T14:40:21.940Z,5.75
2023-05-20T14:42:48.518Z,6.63
2023-05-20T14:45:15.159Z,5.43
2023-05-20T14:47:41.796Z,5.80
2023-05-20T14:50:08.709Z,6.30
2023-05-20T14:52:35.368Z,6.15
2023-05-20T14:55:01.888Z,6.78
2023-05-20T14:57:28.549Z,6.57
2023-05-20T14:59:55.511Z,6.00
2023-05-20T15:02:22.328Z,7.50
2023-05-20T15:04:48.984Z,6.97
2023-05-20T15:07:15.604Z,6.05
2023-05-20T15:09:43.735Z,7.15
2023-05-20T15:12:11.280Z,7.13
2023-05-20T15:14:38.087Z,6.15
2023-05-20T15:17:05.265Z,6.18
2023-05-20T15:19:32.804Z,7.15
2023-05-20T15:21:59.992Z,6.15
2023-05-20T15:24:26.668Z,6.18
2023-05-20T15:26:54.222Z,7.13
2023-05-20T15:29:21.614Z,7.22
2023-05-20T15:31:48.210Z,6.20
2023-05-20T15:34:15.029Z,6.40
2023-05-20T15:36:41.641Z,6.20
2023-05-20T15:39:08.263Z,7.72
2023-05-20T15:41:34.855Z,6.88
2023-05-20T15:44:02.312Z,7.22
2023-05-20T15:46:29.027Z,6.93
2023-05-20T15:48:57.894Z,7.53
2023-05-20T15:51:24.528Z,7.28
2023-05-20T15:53:51.047Z,6.88
2023-05-20T15:56:17.711Z,8.15
2023-05-20T15:58:44.474Z,6.75
2023-05-20T16:01:11.204Z,8.20
2023-05-20T16:03:37.886Z,7.60
2023-05-20T16:06:04.710Z,7.30
2023-05-20T16:08:31.463Z,7.22
2023-05-20T16:10:58.188Z,7.32
2023-05-20T16:13:24.756Z,7.35
2023-05-20T16:15:51.933Z,7.82
2023-05-20T16:18:19.040Z,7.32
2023-05-20T16:20:45.595Z,7.57
2023-05-20T16:23:12.282Z,7.50
2023-05-20T16:25:38.896Z,7.40
2023-05-20T16:28:06.794Z,7.40
2023-05-20T16:30:35.197Z,7.82
2023-05-20T16:33:02.104Z,7.18
2023-05-20T16:35:28.853Z,7.45
2023-05-20T16:37:55.409Z,7.90
2023-05-20T16:40:22.383Z,7.32
2023-05-20T16:42:48.997Z,6.78
2023-05-20T16:45:15.728Z,7.18
2023-05-20T16:47:42.366Z,7.82
2023-05-20T16:50:09.845Z,9.15
2023-05-20T16:52:37.835Z,8.90
2023-05-20T16:55:07.921Z,7.82
2023-05-20T16:57:35.562Z,6.82
2023-05-20T17:00:06.830Z,7.68
2023-05-20T17:02:33.503Z,8.40
2023-05-20T17:05:00.016Z,12.48
2023-05-20T17:07:26.710Z,7.72
2023-05-20T17:09:53.337Z,8.05
2023-05-20T17:12:19.852Z,8.10
2023-05-20T17:17:14.929Z,8.07
2023-05-20T17:19:41.933Z,8.65
2023-05-20T17:22:08.542Z,8.05
2023-05-20T17:24:35.791Z,7.60
2023-05-20T17:27:03.698Z,7.80
2023-05-20T17:29:30.506Z,7.63
2023-05-20T17:31:57.379Z,8.27
2023-05-20T17:34:24.009Z,8.23
2023-05-20T17:36:50.917Z,7.15
2023-05-20T17:39:17.510Z,7.93
2023-05-20T17:41:44.434Z,7.28
2023-05-20T17:44:11.270Z,7.75
2023-05-20T17:46:38.175Z,8.30
2023-05-20T17:49:04.780Z,8.18
2023-05-20T17:51:31.858Z,7.80
2023-05-20T17:53:58.472Z,7.45
2023-05-20T17:56:26.445Z,7.93
2023-05-20T17:58:54.240Z,7.32
2023-05-20T18:01:23.407Z,7.25
2023-05-20T18:03:50.259Z,8.15
2023-05-20T18:06:18.028Z,8.00
2023-05-20T18:08:44.702Z,7.03
2023-05-20T18:11:11.477Z,8.32
2023-05-20T18:13:38.136Z,8.68
2023-05-20T18:16:05.229Z,8.00
2023-05-20T18:18:31.824Z,8.63
2023-05-20T18:20:58.395Z,8.52
2023-05-20T18:23:24.930Z,9.32
2023-05-20T18:25:51.616Z,8.05
2023-05-20T18:28:18.198Z,8.27
2023-05-20T18:30:44.748Z,9.07
2023-05-20T18:33:11.450Z,10.02
2023-05-20T18:35:39.316Z,8.68
2023-05-20T18:38:05.973Z,8.60
2023-05-20T18:42:59.307Z,9.13
2023-05-20T18:45:26.256Z,8.13
2023-05-20T18:47:57.585Z,7.88
2023-05-20T18:50:24.172Z,8.05
2023-05-20T18:55:17.545Z,8.38
2023-05-20T18:57:44.548Z,8.65
2023-05-20T19:00:12.113Z,9.15
2023-05-20T19:02:40.140Z,9.02
2023-05-20T19:05:08.460Z,8.98
2023-05-20T19:07:35.885Z,8.73
2023-05-20T19:10:03.728Z,8.70
2023-05-20T19:12:30.449Z,8.60
2023-05-20T19:14:57.359Z,7.80
2023-05-20T19:17:24.152Z,7.78
2023-05-20T19:19:51.015Z,9.55
2023-05-20T19:22:17.601Z,9.20
2023-05-20T19:27:11.127Z,8.77
2023-05-20T19:29:37.855Z,8.80
2023-05-20T19:32:04.692Z,9.32
2023-05-20T19:34:31.285Z,8.88
2023-05-20T19:36:57.980Z,9.07
2023-05-20T19:39:24.633Z,9.48
2023-05-20T19:41:51.208Z,10.55
2023-05-20T19:49:12.039Z,8.50
2023-05-20T19:51:38.659Z,9.38
2023-05-20T19:54:05.226Z,8.57
2023-05-20T19:59:01.547Z,10.70
2023-05-20T20:01:29.477Z,9.40
2023-05-20T20:03:56.238Z,10.10
2023-05-20T20:06:22.773Z,8.88
2023-05-20T20:11:16.225Z,9.40
2023-05-20T20:13:42.754Z,9.50
2023-05-20T20:18:35.965Z,8.30
2023-05-20T20:21:05.916Z,9.93
2023-05-20T20:23:32.987Z,9.15
2023-05-20T20:25:59.635Z,9.82
2023-05-20T20:28:26.262Z,9.95
2023-05-20T20:30:52.862Z,9.50
2023-05-20T20:33:19.695Z,10.45
2023-05-20T20:35:46.810Z,10.35
2023-05-20T20:38:13.527Z,10.45
2023-05-20T20:40:42.349Z,9.13
2023-05-20T20:43:10.990Z,9.82
2023-05-20T20:45:37.749Z,11.43
2023-05-20T20:48:05.486Z,11.60
2023-05-20T20:50:33.186Z,9.52
2023-05-20T20:52:59.766Z,8.68
2023-05-20T20:55:26.390Z,10.80
2023-05-20T21:00:23.131Z,10.95
2023-05-20T21:02:50.080Z,10.88
2023-05-20T21:05:17.529Z,10.20
2023-05-20T21:07:49.666Z,10.85
2023-05-20T21:10:17.549Z,10.68
2023-05-20T21:12:44.099Z,11.02
2023-05-20T21:17:39.228Z,11.43
2023-05-20T21:20:07.293Z,10.13
2023-05-20T21:22:33.852Z,10.48
2023-05-20T21:27:27.072Z,11.98
2023-05-20T21:32:20.143Z,12.15
2023-05-20T21:37:13.072Z,11.68
2023-05-20T21:42:06.762Z,11.70
2023-05-20T21:44:33.583Z,11.57
2023-05-20T21:47:00.214Z,10.95
2023-05-20T21:49:27.716Z,12.05
2023-05-20T21:54:20.733Z,12.07
2023-05-20T21:59:14.689Z,12.00
2023-05-20T22:17:36.641Z,12.55
2023-05-20T22:20:10.714Z,12.38
2023-05-20T22:22:39.156Z,12.10
2023-05-20T22:25:09.010Z,11.52
2023-05-20T22:27:35.629Z,11.00
2023-05-20T22:32:29.016Z,12.53
2023-05-20T22:34:58.414Z,12.30
2023-05-20T22:37:28.749Z,11.95
2023-05-20T22:39:55.986Z,11.65
2023-05-20T22:42:22.706Z,10.93
2023-05-20T22:44:49.725Z,11.10
2023-05-20T22:47:16.492Z,11.38
2023-05-20T22:49:43.087Z,11.45
2023-05-20T22:54:36.247Z,9.80
2023-05-20T22:57:03.186Z,11.07
2023-05-20T22:59:32.897Z,12.55
2023-05-20T23:01:59.532Z,11.50
2023-05-20T23:06:53.917Z,12.18
2023-05-20T23:09:21.071Z,11.77
2023-05-20T23:11:47.710Z,11.85
2023-05-20T23:16:42.109Z,12.32
2023-05-20T23:19:09.027Z,11.23
2023-05-20T23:21:37.299Z,11.95
2023-05-20T23:24:04.529Z,12.45
2023-05-20T23:26:31.487Z,12.32
2023-05-20T23:28:58.036Z,12.27
2023-05-20T23:33:54.237Z,11.80
2023-05-20T23:36:20.838Z,9.52
2023-05-20T23:41:13.772Z,11.38
2023-05-20T23:46:08.563Z,12.75
2023-05-20T23:48:36.036Z,12.35
2023-05-20T23:51:03.036Z,11.98
2023-05-20T23:53:29.953Z,12.65
2023-05-20T23:55:56.493Z,11.88
